sensor_id;sensor_type;location;lat;lon;timestamp;P1;durP1;ratioP1;P2;durP2;ratioP2
13741;SDS011;8461;52.356;10.704;2022-10-04T00:04:40;4.17;;;1.67;;
13741;SDS011;8461;52.356;10.704;2022-10-04T00:09:45;6.40;;;1.87;;
13741;SDS011;8461;52.356;10.704;2022-10-04T00:14:58;4.30;;;1.80;;
13741;SDS011;8461;52.356;10.704;2022-10-04T00:17:27;5.87;;;1.80;;
13741;SDS011;8461;52.356;10.704;2022-10-04T00:19:55;6.27;;;1.73;;
13741;SDS011;8461;52.356;10.704;2022-10-04T00:22:31;5.77;;;2.20;;
13741;SDS011;8461;52.356;10.704;2022-10-04T00:27:32;5.40;;;1.80;;
13741;SDS011;8461;52.356;10.704;2022-10-04T00:32:30;10.83;;;1.80;;
13741;SDS011;8461;52.356;10.704;2022-10-04T00:40:39;4.60;;;1.57;;
13741;SDS011;8461;52.356;10.704;2022-10-04T00:46:04;4.70;;;2.13;;
13741;SDS011;8461;52.356;10.704;2022-10-04T00:51:18;5.70;;;1.87;;
13741;SDS011;8461;52.356;10.704;2022-10-04T00:56:42;6.93;;;2.27;;
13741;SDS011;8461;52.356;10.704;2022-10-04T00:59:25;6.57;;;2.10;;
13741;SDS011;8461;52.356;10.704;2022-10-04T01:02:17;7.73;;;2.17;;
13741;SDS011;8461;52.356;10.704;2022-10-04T01:04:54;4.33;;;2.10;;
13741;SDS011;8461;52.356;10.704;2022-10-04T01:07:29;5.63;;;2.13;;
13741;SDS011;8461;52.356;10.704;2022-10-04T01:10:05;7.33;;;2.00;;
13741;SDS011;8461;52.356;10.704;2022-10-04T01:15:22;8.00;;;2.47;;
13741;SDS011;8461;52.356;10.704;2022-10-04T01:20:39;6.53;;;2.63;;
13741;SDS011;8461;52.356;10.704;2022-10-04T01:25:57;9.97;;;2.70;;
13741;SDS011;8461;52.356;10.704;2022-10-04T01:28:24;7.67;;;2.37;;
13741;SDS011;8461;52.356;10.704;2022-10-04T01:30:50;9.87;;;2.50;;
13741;SDS011;8461;52.356;10.704;2022-10-04T01:33:17;8.20;;;3.80;;
13741;SDS011;8461;52.356;10.704;2022-10-04T01:35:43;9.23;;;2.47;;
13741;SDS011;8461;52.356;10.704;2022-10-04T01:38:08;9.47;;;2.70;;
13741;SDS011;8461;52.356;10.704;2022-10-04T01:40:35;6.97;;;2.23;;
13741;SDS011;8461;52.356;10.704;2022-10-04T01:43:26;6.40;;;2.63;;
13741;SDS011;8461;52.356;10.704;2022-10-04T01:46:01;8.67;;;2.10;;
13741;SDS011;8461;52.356;10.704;2022-10-04T01:48:35;7.03;;;2.57;;
13741;SDS011;8461;52.356;10.704;2022-10-04T01:51:04;7.87;;;2.40;;
13741;SDS011;8461;52.356;10.704;2022-10-04T01:53:40;6.00;;;2.47;;
13741;SDS011;8461;52.356;10.704;2022-10-04T01:56:16;6.10;;;2.40;;
13741;SDS011;8461;52.356;10.704;2022-10-04T01:58:47;6.63;;;2.10;;
13741;SDS011;8461;52.356;10.704;2022-10-04T02:01:24;5.07;;;2.03;;
13741;SDS011;8461;52.356;10.704;2022-10-04T02:06:26;8.50;;;2.53;;
13741;SDS011;8461;52.356;10.704;2022-10-04T02:08:53;8.10;;;2.40;;
13741;SDS011;8461;52.356;10.704;2022-10-04T02:11:22;3.93;;;2.30;;
13741;SDS011;8461;52.356;10.704;2022-10-04T02:13:52;7.77;;;2.47;;
13741;SDS011;8461;52.356;10.704;2022-10-04T02:16:19;5.77;;;2.43;;
13741;SDS011;8461;52.356;10.704;2022-10-04T02:18:46;10.00;;;2.20;;
13741;SDS011;8461;52.356;10.704;2022-10-04T02:21:14;7.63;;;2.43;;
13741;SDS011;8461;52.356;10.704;2022-10-04T02:23:42;6.13;;;2.80;;
13741;SDS011;8461;52.356;10.704;2022-10-04T02:26:10;7.33;;;2.53;;
13741;SDS011;8461;52.356;10.704;2022-10-04T02:28:36;10.03;;;2.70;;
13741;SDS011;8461;52.356;10.704;2022-10-04T02:31:02;6.57;;;2.17;;
13741;SDS011;8461;52.356;10.704;2022-10-04T02:33:48;5.17;;;2.17;;
13741;SDS011;8461;52.356;10.704;2022-10-04T02:36:16;3.57;;;2.23;;
13741;SDS011;8461;52.356;10.704;2022-10-04T02:41:25;6.93;;;2.03;;
13741;SDS011;8461;52.356;10.704;2022-10-04T02:46:52;5.80;;;1.93;;
13741;SDS011;8461;52.356;10.704;2022-10-04T02:49:38;8.30;;;2.40;;
13741;SDS011;8461;52.356;10.704;2022-10-04T02:52:11;4.57;;;1.93;;
13741;SDS011;8461;52.356;10.704;2022-10-04T02:55:05;4.57;;;2.00;;
13741;SDS011;8461;52.356;10.704;2022-10-04T02:57:54;7.33;;;2.10;;
13741;SDS011;8461;52.356;10.704;2022-10-04T03:00:21;9.57;;;2.47;;
13741;SDS011;8461;52.356;10.704;2022-10-04T03:05:37;10.27;;;2.53;;
13741;SDS011;8461;52.356;10.704;2022-10-04T03:08:04;10.27;;;1.83;;
13741;SDS011;8461;52.356;10.704;2022-10-04T03:10:30;4.47;;;1.87;;
13741;SDS011;8461;52.356;10.704;2022-10-04T03:12:56;5.00;;;1.80;;
13741;SDS011;8461;52.356;10.704;2022-10-04T03:15:22;7.00;;;1.90;;
13741;SDS011;8461;52.356;10.704;2022-10-04T03:17:48;7.30;;;1.90;;
13741;SDS011;8461;52.356;10.704;2022-10-04T03:20:14;7.37;;;2.13;;
13741;SDS011;8461;52.356;10.704;2022-10-04T03:22:45;4.80;;;1.87;;
13741;SDS011;8461;52.356;10.704;2022-10-04T03:25:19;4.70;;;2.00;;
13741;SDS011;8461;52.356;10.704;2022-10-04T03:27:48;8.97;;;2.30;;
13741;SDS011;8461;52.356;10.704;2022-10-04T03:30:15;9.20;;;1.87;;
13741;SDS011;8461;52.356;10.704;2022-10-04T03:32:44;7.53;;;2.03;;
13741;SDS011;8461;52.356;10.704;2022-10-04T03:35:32;7.27;;;2.27;;
13741;SDS011;8461;52.356;10.704;2022-10-04T03:38:03;8.67;;;2.30;;
13741;SDS011;8461;52.356;10.704;2022-10-04T03:40:32;6.33;;;1.87;;
13741;SDS011;8461;52.356;10.704;2022-10-04T03:43:01;3.77;;;1.50;;
13741;SDS011;8461;52.356;10.704;2022-10-04T03:45:29;6.30;;;2.40;;
13741;SDS011;8461;52.356;10.704;2022-10-04T03:47:57;4.80;;;1.70;;
13741;SDS011;8461;52.356;10.704;2022-10-04T03:50:30;8.53;;;1.70;;
13741;SDS011;8461;52.356;10.704;2022-10-04T03:53:14;4.20;;;1.97;;
13741;SDS011;8461;52.356;10.704;2022-10-04T03:55:51;8.93;;;2.40;;
13741;SDS011;8461;52.356;10.704;2022-10-04T03:58:17;6.50;;;1.77;;
13741;SDS011;8461;52.356;10.704;2022-10-04T04:03:45;6.67;;;2.77;;
13741;SDS011;8461;52.356;10.704;2022-10-04T04:06:39;4.03;;;1.70;;
13741;SDS011;8461;52.356;10.704;2022-10-04T04:09:16;3.57;;;1.80;;
13741;SDS011;8461;52.356;10.704;2022-10-04T04:11:47;5.13;;;2.10;;
13741;SDS011;8461;52.356;10.704;2022-10-04T04:14:18;5.40;;;1.60;;
13741;SDS011;8461;52.356;10.704;2022-10-04T04:16:48;6.57;;;1.50;;
13741;SDS011;8461;52.356;10.704;2022-10-04T04:19:14;3.13;;;1.80;;
13741;SDS011;8461;52.356;10.704;2022-10-04T04:21:42;7.37;;;2.17;;
13741;SDS011;8461;52.356;10.704;2022-10-04T04:24:13;5.77;;;2.30;;
13741;SDS011;8461;52.356;10.704;2022-10-04T04:26:55;7.83;;;2.27;;
13741;SDS011;8461;52.356;10.704;2022-10-04T04:29:25;6.03;;;1.70;;
13741;SDS011;8461;52.356;10.704;2022-10-04T04:32:24;8.20;;;1.60;;
13741;SDS011;8461;52.356;10.704;2022-10-04T04:34:56;3.73;;;2.20;;
13741;SDS011;8461;52.356;10.704;2022-10-04T04:37:24;8.10;;;1.70;;
13741;SDS011;8461;52.356;10.704;2022-10-04T04:39:50;8.03;;;3.03;;
13741;SDS011;8461;52.356;10.704;2022-10-04T04:44:54;6.47;;;2.50;;
13741;SDS011;8461;52.356;10.704;2022-10-04T04:47:28;6.83;;;2.10;;
13741;SDS011;8461;52.356;10.704;2022-10-04T04:50:15;6.80;;;1.93;;
13741;SDS011;8461;52.356;10.704;2022-10-04T04:52:44;5.13;;;1.80;;
13741;SDS011;8461;52.356;10.704;2022-10-04T04:55:19;5.87;;;2.10;;
13741;SDS011;8461;52.356;10.704;2022-10-04T04:57:50;6.47;;;2.80;;
13741;SDS011;8461;52.356;10.704;2022-10-04T05:00:20;9.27;;;2.13;;
13741;SDS011;8461;52.356;10.704;2022-10-04T05:02:53;8.90;;;1.90;;
13741;SDS011;8461;52.356;10.704;2022-10-04T05:13:23;3.57;;;1.20;;
13741;SDS011;8461;52.356;10.704;2022-10-04T05:15:56;3.67;;;1.27;;
13741;SDS011;8461;52.356;10.704;2022-10-04T05:18:27;7.67;;;2.00;;
13741;SDS011;8461;52.356;10.704;2022-10-04T05:20:58;7.57;;;1.67;;
13741;SDS011;8461;52.356;10.704;2022-10-04T05:23:29;8.70;;;2.17;;
13741;SDS011;8461;52.356;10.704;2022-10-04T05:25:56;11.20;;;3.40;;
13741;SDS011;8461;52.356;10.704;2022-10-04T05:28:24;5.40;;;1.67;;
13741;SDS011;8461;52.356;10.704;2022-10-04T05:30:56;5.60;;;1.70;;
13741;SDS011;8461;52.356;10.704;2022-10-04T05:33:49;5.07;;;1.93;;
13741;SDS011;8461;52.356;10.704;2022-10-04T05:39:25;10.20;;;1.83;;
13741;SDS011;8461;52.356;10.704;2022-10-04T05:42:01;4.60;;;1.57;;
13741;SDS011;8461;52.356;10.704;2022-10-04T05:44:43;7.43;;;1.70;;
13741;SDS011;8461;52.356;10.704;2022-10-04T05:47:13;6.00;;;1.90;;
13741;SDS011;8461;52.356;10.704;2022-10-04T05:49:40;6.17;;;1.90;;
13741;SDS011;8461;52.356;10.704;2022-10-04T05:58:20;8.37;;;1.97;;
13741;SDS011;8461;52.356;10.704;2022-10-04T06:03:48;3.87;;;1.90;;
13741;SDS011;8461;52.356;10.704;2022-10-04T06:06:38;6.40;;;1.70;;
13741;SDS011;8461;52.356;10.704;2022-10-04T06:09:18;6.70;;;2.57;;
13741;SDS011;8461;52.356;10.704;2022-10-04T06:12:09;6.60;;;1.90;;
13741;SDS011;8461;52.356;10.704;2022-10-04T06:14:45;6.93;;;1.90;;
13741;SDS011;8461;52.356;10.704;2022-10-04T06:20:12;2.93;;;1.50;;
13741;SDS011;8461;52.356;10.704;2022-10-04T06:23:04;4.77;;;1.43;;
13741;SDS011;8461;52.356;10.704;2022-10-04T06:25:43;10.03;;;2.83;;
13741;SDS011;8461;52.356;10.704;2022-10-04T06:33:30;2.83;;;1.70;;
13741;SDS011;8461;52.356;10.704;2022-10-04T06:39:17;7.00;;;1.67;;
13741;SDS011;8461;52.356;10.704;2022-10-04T06:49:53;7.43;;;2.67;;
13741;SDS011;8461;52.356;10.704;2022-10-04T06:58:19;5.87;;;1.80;;
13741;SDS011;8461;52.356;10.704;2022-10-04T07:01:12;4.27;;;1.57;;
13741;SDS011;8461;52.356;10.704;2022-10-04T07:06:32;8.47;;;1.93;;
13741;SDS011;8461;52.356;10.704;2022-10-04T07:09:03;5.60;;;2.10;;
13741;SDS011;8461;52.356;10.704;2022-10-04T07:11:40;3.73;;;1.93;;
13741;SDS011;8461;52.356;10.704;2022-10-04T07:14:16;9.67;;;2.40;;
13741;SDS011;8461;52.356;10.704;2022-10-04T07:16:49;7.40;;;2.03;;
13741;SDS011;8461;52.356;10.704;2022-10-04T07:27:02;8.70;;;2.43;;
13741;SDS011;8461;52.356;10.704;2022-10-04T07:29:32;7.47;;;2.23;;
13741;SDS011;8461;52.356;10.704;2022-10-04T07:34:43;8.67;;;2.30;;
13741;SDS011;8461;52.356;10.704;2022-10-04T07:37:28;6.77;;;2.30;;
13741;SDS011;8461;52.356;10.704;2022-10-04T07:40:17;10.40;;;2.33;;
13741;SDS011;8461;52.356;10.704;2022-10-04T07:42:52;8.00;;;2.00;;
13741;SDS011;8461;52.356;10.704;2022-10-04T07:45:28;9.90;;;2.67;;
13741;SDS011;8461;52.356;10.704;2022-10-04T07:48:11;6.80;;;2.00;;
13741;SDS011;8461;52.356;10.704;2022-10-04T07:50:39;6.50;;;2.60;;
13741;SDS011;8461;52.356;10.704;2022-10-04T07:53:16;5.27;;;2.20;;
13741;SDS011;8461;52.356;10.704;2022-10-04T07:56:05;6.07;;;2.30;;
13741;SDS011;8461;52.356;10.704;2022-10-04T08:06:21;7.33;;;2.53;;
13741;SDS011;8461;52.356;10.704;2022-10-04T08:12:06;6.17;;;2.00;;
13741;SDS011;8461;52.356;10.704;2022-10-04T08:17:46;7.17;;;2.23;;
13741;SDS011;8461;52.356;10.704;2022-10-04T08:25:38;5.23;;;2.50;;
13741;SDS011;8461;52.356;10.704;2022-10-04T08:33:55;9.53;;;3.00;;
13741;SDS011;8461;52.356;10.704;2022-10-04T08:36:52;7.77;;;2.87;;
13741;SDS011;8461;52.356;10.704;2022-10-04T08:45:00;6.60;;;2.40;;
13741;SDS011;8461;52.356;10.704;2022-10-04T08:51:07;11.40;;;2.70;;
13741;SDS011;8461;52.356;10.704;2022-10-04T09:00:12;8.33;;;2.70;;
13741;SDS011;8461;52.356;10.704;2022-10-04T09:29:03;8.70;;;2.50;;
13741;SDS011;8461;52.356;10.704;2022-10-04T09:34:53;8.77;;;2.20;;
13741;SDS011;8461;52.356;10.704;2022-10-04T09:37:41;6.27;;;2.10;;
13741;SDS011;8461;52.356;10.704;2022-10-04T09:52:14;6.23;;;2.20;;
13741;SDS011;8461;52.356;10.704;2022-10-04T09:58:39;6.67;;;2.20;;
13741;SDS011;8461;52.356;10.704;2022-10-04T10:09:44;6.57;;;2.47;;
13741;SDS011;8461;52.356;10.704;2022-10-04T10:27:14;7.43;;;1.67;;
13741;SDS011;8461;52.356;10.704;2022-10-04T10:30:20;5.80;;;1.57;;
13741;SDS011;8461;52.356;10.704;2022-10-04T10:38:22;4.27;;;1.53;;
13741;SDS011;8461;52.356;10.704;2022-10-04T10:44:11;5.30;;;1.53;;
13741;SDS011;8461;52.356;10.704;2022-10-04T10:49:25;7.77;;;1.50;;
13741;SDS011;8461;52.356;10.704;2022-10-04T10:52:06;6.67;;;1.73;;
13741;SDS011;8461;52.356;10.704;2022-10-04T11:02:50;5.97;;;1.20;;
13741;SDS011;8461;52.356;10.704;2022-10-04T11:14:36;8.53;;;1.83;;
13741;SDS011;8461;52.356;10.704;2022-10-04T11:17:22;4.60;;;1.40;;
13741;SDS011;8461;52.356;10.704;2022-10-04T11:20:24;3.93;;;1.50;;
13741;SDS011;8461;52.356;10.704;2022-10-04T11:26:18;5.50;;;1.40;;
13741;SDS011;8461;52.356;10.704;2022-10-04T11:37:15;3.50;;;1.23;;
13741;SDS011;8461;52.356;10.704;2022-10-04T11:50:51;6.23;;;1.67;;
13741;SDS011;8461;52.356;10.704;2022-10-04T11:59:33;6.73;;;1.23;;
13741;SDS011;8461;52.356;10.704;2022-10-04T12:02:45;4.70;;;1.40;;
13741;SDS011;8461;52.356;10.704;2022-10-04T12:05:18;4.77;;;1.23;;
13741;SDS011;8461;52.356;10.704;2022-10-04T12:08:26;7.67;;;1.23;;
13741;SDS011;8461;52.356;10.704;2022-10-04T12:11:17;3.47;;;1.20;;
13741;SDS011;8461;52.356;10.704;2022-10-04T12:19:44;4.77;;;1.50;;
13741;SDS011;8461;52.356;10.704;2022-10-04T12:25:09;5.47;;;1.53;;
13741;SDS011;8461;52.356;10.704;2022-10-04T12:28:21;5.67;;;1.30;;
13741;SDS011;8461;52.356;10.704;2022-10-04T12:33:41;6.23;;;1.53;;
13741;SDS011;8461;52.356;10.704;2022-10-04T12:36:34;4.63;;;1.93;;
13741;SDS011;8461;52.356;10.704;2022-10-04T13:01:09;4.47;;;1.40;;
13741;SDS011;8461;52.356;10.704;2022-10-04T13:04:12;2.10;;;1.00;;
13741;SDS011;8461;52.356;10.704;2022-10-04T13:07:28;3.33;;;0.83;;
13741;SDS011;8461;52.356;10.704;2022-10-04T13:09:56;2.53;;;0.90;;
13741;SDS011;8461;52.356;10.704;2022-10-04T13:15:48;2.10;;;1.20;;
13741;SDS011;8461;52.356;10.704;2022-10-04T13:23:16;5.63;;;1.23;;
13741;SDS011;8461;52.356;10.704;2022-10-04T13:26:03;3.53;;;1.23;;
13741;SDS011;8461;52.356;10.704;2022-10-04T13:28:53;3.40;;;1.80;;
13741;SDS011;8461;52.356;10.704;2022-10-04T13:31:37;4.93;;;1.70;;
13741;SDS011;8461;52.356;10.704;2022-10-04T13:34:31;3.53;;;1.30;;
13741;SDS011;8461;52.356;10.704;2022-10-04T13:42:57;2.37;;;1.30;;
13741;SDS011;8461;52.356;10.704;2022-10-04T13:45:50;6.77;;;1.40;;
13741;SDS011;8461;52.356;10.704;2022-10-04T13:48:30;3.67;;;1.70;;
13741;SDS011;8461;52.356;10.704;2022-10-04T13:51:21;3.60;;;1.30;;
13741;SDS011;8461;52.356;10.704;2022-10-04T13:57:05;6.10;;;1.63;;
13741;SDS011;8461;52.356;10.704;2022-10-04T14:02:28;4.83;;;1.50;;
13741;SDS011;8461;52.356;10.704;2022-10-04T14:07:49;3.80;;;1.30;;
13741;SDS011;8461;52.356;10.704;2022-10-04T14:13:25;4.93;;;1.63;;
13741;SDS011;8461;52.356;10.704;2022-10-04T14:16:17;4.00;;;1.50;;
13741;SDS011;8461;52.356;10.704;2022-10-04T14:21:46;3.10;;;1.23;;
13741;SDS011;8461;52.356;10.704;2022-10-04T14:29:45;4.33;;;1.90;;
13741;SDS011;8461;52.356;10.704;2022-10-04T14:35:02;4.60;;;1.80;;
13741;SDS011;8461;52.356;10.704;2022-10-04T14:46:37;5.23;;;1.37;;
13741;SDS011;8461;52.356;10.704;2022-10-04T15:00:51;2.73;;;1.30;;
13741;SDS011;8461;52.356;10.704;2022-10-04T15:06:25;3.73;;;1.63;;
13741;SDS011;8461;52.356;10.704;2022-10-04T15:09:12;3.60;;;1.37;;
13741;SDS011;8461;52.356;10.704;2022-10-04T15:23:06;1.83;;;1.23;;
13741;SDS011;8461;52.356;10.704;2022-10-04T15:25:43;3.67;;;1.50;;
13741;SDS011;8461;52.356;10.704;2022-10-04T15:31:12;4.53;;;1.57;;
13741;SDS011;8461;52.356;10.704;2022-10-04T15:36:33;3.23;;;1.57;;
13741;SDS011;8461;52.356;10.704;2022-10-04T15:41:50;4.00;;;1.60;;
13741;SDS011;8461;52.356;10.704;2022-10-04T15:47:14;3.13;;;1.83;;
13741;SDS011;8461;52.356;10.704;2022-10-04T15:52:43;3.03;;;1.40;;
13741;SDS011;8461;52.356;10.704;2022-10-04T15:55:18;3.30;;;1.77;;
13741;SDS011;8461;52.356;10.704;2022-10-04T15:57:59;4.30;;;1.33;;
13741;SDS011;8461;52.356;10.704;2022-10-04T16:03:42;4.27;;;1.90;;
13741;SDS011;8461;52.356;10.704;2022-10-04T16:22:33;4.57;;;1.83;;
13741;SDS011;8461;52.356;10.704;2022-10-04T16:28:03;3.30;;;1.90;;
13741;SDS011;8461;52.356;10.704;2022-10-04T16:31:09;4.00;;;1.60;;
13741;SDS011;8461;52.356;10.704;2022-10-04T16:33:41;3.13;;;1.47;;
13741;SDS011;8461;52.356;10.704;2022-10-04T16:36:20;4.33;;;1.70;;
13741;SDS011;8461;52.356;10.704;2022-10-04T16:38:50;7.73;;;2.17;;
13741;SDS011;8461;52.356;10.704;2022-10-04T16:41:41;3.53;;;1.80;;
13741;SDS011;8461;52.356;10.704;2022-10-04T16:45:23;5.30;;;2.10;;
13741;SDS011;8461;52.356;10.704;2022-10-04T16:47:18;4.13;;;1.90;;
13741;SDS011;8461;52.356;10.704;2022-10-04T16:50:03;2.30;;;1.57;;
13741;SDS011;8461;52.356;10.704;2022-10-04T17:04:13;4.27;;;2.10;;
13741;SDS011;8461;52.356;10.704;2022-10-04T17:06:50;4.27;;;2.13;;
13741;SDS011;8461;52.356;10.704;2022-10-04T17:14:54;7.40;;;2.20;;
13741;SDS011;8461;52.356;10.704;2022-10-04T17:17:44;7.07;;;2.73;;
13741;SDS011;8461;52.356;10.704;2022-10-04T17:28:33;5.33;;;3.00;;
13741;SDS011;8461;52.356;10.704;2022-10-04T17:36:43;4.53;;;2.57;;
13741;SDS011;8461;52.356;10.704;2022-10-04T17:39:26;10.17;;;2.73;;
13741;SDS011;8461;52.356;10.704;2022-10-04T17:47:39;5.07;;;2.73;;
13741;SDS011;8461;52.356;10.704;2022-10-04T17:50:34;5.13;;;2.50;;
13741;SDS011;8461;52.356;10.704;2022-10-04T17:53:29;5.47;;;2.63;;
13741;SDS011;8461;52.356;10.704;2022-10-04T17:56:32;5.50;;;3.03;;
13741;SDS011;8461;52.356;10.704;2022-10-04T17:59:05;7.30;;;3.20;;
13741;SDS011;8461;52.356;10.704;2022-10-04T18:01:46;5.50;;;3.40;;
13741;SDS011;8461;52.356;10.704;2022-10-04T18:04:24;6.20;;;3.77;;
13741;SDS011;8461;52.356;10.704;2022-10-04T18:12:26;5.07;;;3.20;;
13741;SDS011;8461;52.356;10.704;2022-10-04T18:15:05;5.27;;;2.93;;
13741;SDS011;8461;52.356;10.704;2022-10-04T18:17:49;9.93;;;3.03;;
13741;SDS011;8461;52.356;10.704;2022-10-04T18:20:22;5.77;;;2.90;;
13741;SDS011;8461;52.356;10.704;2022-10-04T18:23:02;6.23;;;3.00;;
13741;SDS011;8461;52.356;10.704;2022-10-04T18:25:41;4.33;;;2.83;;
13741;SDS011;8461;52.356;10.704;2022-10-04T18:30:55;7.97;;;2.97;;
13741;SDS011;8461;52.356;10.704;2022-10-04T18:36:16;4.53;;;3.40;;
13741;SDS011;8461;52.356;10.704;2022-10-04T18:38:58;5.67;;;2.80;;
13741;SDS011;8461;52.356;10.704;2022-10-04T18:41:27;4.13;;;2.50;;
13741;SDS011;8461;52.356;10.704;2022-10-04T18:44:15;6.07;;;3.07;;
13741;SDS011;8461;52.356;10.704;2022-10-04T18:46:44;5.00;;;2.60;;
13741;SDS011;8461;52.356;10.704;2022-10-04T18:49:18;3.80;;;2.40;;
13741;SDS011;8461;52.356;10.704;2022-10-04T19:00:09;11.03;;;4.40;;
13741;SDS011;8461;52.356;10.704;2022-10-04T19:03:01;6.70;;;4.07;;
13741;SDS011;8461;52.356;10.704;2022-10-04T19:05:48;9.43;;;3.90;;
13741;SDS011;8461;52.356;10.704;2022-10-04T19:14:02;5.13;;;3.07;;
13741;SDS011;8461;52.356;10.704;2022-10-04T19:16:59;4.10;;;2.80;;
13741;SDS011;8461;52.356;10.704;2022-10-04T19:19:41;5.20;;;2.93;;
13741;SDS011;8461;52.356;10.704;2022-10-04T19:25:34;6.00;;;2.80;;
13741;SDS011;8461;52.356;10.704;2022-10-04T19:28:05;4.07;;;2.60;;
13741;SDS011;8461;52.356;10.704;2022-10-04T19:39:22;5.87;;;3.23;;
13741;SDS011;8461;52.356;10.704;2022-10-04T19:42:10;7.40;;;3.53;;
13741;SDS011;8461;52.356;10.704;2022-10-04T19:44:57;4.17;;;3.13;;
13741;SDS011;8461;52.356;10.704;2022-10-04T19:47:41;5.63;;;2.77;;
13741;SDS011;8461;52.356;10.704;2022-10-04T19:52:41;4.40;;;2.67;;
13741;SDS011;8461;52.356;10.704;2022-10-04T20:01:01;5.27;;;2.57;;
13741;SDS011;8461;52.356;10.704;2022-10-04T20:03:36;5.70;;;2.13;;
13741;SDS011;8461;52.356;10.704;2022-10-04T20:06:02;6.70;;;2.20;;
13741;SDS011;8461;52.356;10.704;2022-10-04T20:12:04;4.67;;;2.37;;
13741;SDS011;8461;52.356;10.704;2022-10-04T20:21:53;2.13;;;1.80;;
13741;SDS011;8461;52.356;10.704;2022-10-04T20:34:59;4.50;;;2.17;;
13741;SDS011;8461;52.356;10.704;2022-10-04T20:43:22;3.27;;;2.00;;
13741;SDS011;8461;52.356;10.704;2022-10-04T20:45:47;4.73;;;2.30;;
13741;SDS011;8461;52.356;10.704;2022-10-04T20:48:25;3.17;;;2.37;;
13741;SDS011;8461;52.356;10.704;2022-10-04T20:50:52;4.17;;;2.60;;
13741;SDS011;8461;52.356;10.704;2022-10-04T20:58:37;6.30;;;2.50;;
13741;SDS011;8461;52.356;10.704;2022-10-04T21:01:05;3.60;;;1.90;;
13741;SDS011;8461;52.356;10.704;2022-10-04T21:09:23;3.40;;;1.93;;
13741;SDS011;8461;52.356;10.704;2022-10-04T21:11:51;8.27;;;2.60;;
13741;SDS011;8461;52.356;10.704;2022-10-04T21:14:25;4.80;;;2.23;;
13741;SDS011;8461;52.356;10.704;2022-10-04T21:16:53;4.37;;;2.30;;
13741;SDS011;8461;52.356;10.704;2022-10-04T21:21:57;8.23;;;3.00;;
13741;SDS011;8461;52.356;10.704;2022-10-04T21:26:56;3.73;;;2.17;;
13741;SDS011;8461;52.356;10.704;2022-10-04T21:29:22;3.13;;;2.17;;
13741;SDS011;8461;52.356;10.704;2022-10-04T21:31:47;4.57;;;2.50;;
13741;SDS011;8461;52.356;10.704;2022-10-04T21:34:13;5.93;;;2.70;;
13741;SDS011;8461;52.356;10.704;2022-10-04T21:36:38;5.93;;;2.13;;
13741;SDS011;8461;52.356;10.704;2022-10-04T21:39:04;4.33;;;2.20;;
13741;SDS011;8461;52.356;10.704;2022-10-04T21:41:29;4.17;;;2.30;;
13741;SDS011;8461;52.356;10.704;2022-10-04T21:43:55;3.60;;;2.33;;
13741;SDS011;8461;52.356;10.704;2022-10-04T21:46:20;3.97;;;2.40;;
13741;SDS011;8461;52.356;10.704;2022-10-04T21:48:46;3.83;;;2.00;;
13741;SDS011;8461;52.356;10.704;2022-10-04T21:51:11;3.03;;;2.03;;
13741;SDS011;8461;52.356;10.704;2022-10-04T21:53:37;3.27;;;2.23;;
13741;SDS011;8461;52.356;10.704;2022-10-04T21:56:02;4.77;;;2.50;;
13741;SDS011;8461;52.356;10.704;2022-10-04T21:58:30;3.33;;;2.10;;
13741;SDS011;8461;52.356;10.704;2022-10-04T22:00:56;3.50;;;1.93;;
13741;SDS011;8461;52.356;10.704;2022-10-04T22:03:21;4.20;;;2.40;;
13741;SDS011;8461;52.356;10.704;2022-10-04T22:05:47;5.37;;;2.40;;
13741;SDS011;8461;52.356;10.704;2022-10-04T22:08:12;5.57;;;2.07;;
13741;SDS011;8461;52.356;10.704;2022-10-04T22:10:38;4.30;;;2.87;;
13741;SDS011;8461;52.356;10.704;2022-10-04T22:13:04;6.20;;;2.43;;
13741;SDS011;8461;52.356;10.704;2022-10-04T22:15:29;4.03;;;2.53;;
13741;SDS011;8461;52.356;10.704;2022-10-04T22:17:55;3.93;;;2.30;;
13741;SDS011;8461;52.356;10.704;2022-10-04T22:20:21;5.63;;;2.73;;
13741;SDS011;8461;52.356;10.704;2022-10-04T22:22:48;5.80;;;2.83;;
13741;SDS011;8461;52.356;10.704;2022-10-04T22:25:18;4.77;;;2.77;;
13741;SDS011;8461;52.356;10.704;2022-10-04T22:27:45;6.67;;;2.20;;
13741;SDS011;8461;52.356;10.704;2022-10-04T22:30:18;3.80;;;2.47;;
13741;SDS011;8461;52.356;10.704;2022-10-04T22:32:47;5.73;;;2.13;;
13741;SDS011;8461;52.356;10.704;2022-10-04T22:35:13;4.17;;;2.10;;
13741;SDS011;8461;52.356;10.704;2022-10-04T22:37:43;4.00;;;2.33;;
13741;SDS011;8461;52.356;10.704;2022-10-04T22:40:17;6.90;;;2.37;;
13741;SDS011;8461;52.356;10.704;2022-10-04T22:42:45;7.50;;;2.40;;
13741;SDS011;8461;52.356;10.704;2022-10-04T22:45:17;6.17;;;2.20;;
13741;SDS011;8461;52.356;10.704;2022-10-04T22:47:45;4.90;;;2.40;;
13741;SDS011;8461;52.356;10.704;2022-10-04T22:50:17;3.03;;;2.23;;
13741;SDS011;8461;52.356;10.704;2022-10-04T22:52:57;4.53;;;2.07;;
13741;SDS011;8461;52.356;10.704;2022-10-04T22:55:28;4.80;;;2.40;;
13741;SDS011;8461;52.356;10.704;2022-10-04T22:57:54;3.17;;;2.17;;
13741;SDS011;8461;52.356;10.704;2022-10-04T23:00:20;4.10;;;2.20;;
13741;SDS011;8461;52.356;10.704;2022-10-04T23:02:45;4.33;;;2.20;;
13741;SDS011;8461;52.356;10.704;2022-10-04T23:05:15;4.00;;;2.40;;
13741;SDS011;8461;52.356;10.704;2022-10-04T23:07:42;3.97;;;2.13;;
13741;SDS011;8461;52.356;10.704;2022-10-04T23:10:10;4.10;;;2.03;;
13741;SDS011;8461;52.356;10.704;2022-10-04T23:12:36;5.00;;;2.50;;
13741;SDS011;8461;52.356;10.704;2022-10-04T23:15:03;4.30;;;2.43;;
13741;SDS011;8461;52.356;10.704;2022-10-04T23:17:33;4.43;;;2.17;;
13741;SDS011;8461;52.356;10.704;2022-10-04T23:20:05;2.97;;;2.20;;
13741;SDS011;8461;52.356;10.704;2022-10-04T23:22:38;4.53;;;2.50;;
13741;SDS011;8461;52.356;10.704;2022-10-04T23:27:40;3.03;;;2.47;;
13741;SDS011;8461;52.356;10.704;2022-10-04T23:30:08;4.50;;;2.27;;
13741;SDS011;8461;52.356;10.704;2022-10-04T23:32:38;6.17;;;2.60;;
13741;SDS011;8461;52.356;10.704;2022-10-04T23:35:05;3.70;;;2.13;;
13741;SDS011;8461;52.356;10.704;2022-10-04T23:37:42;3.47;;;2.57;;
13741;SDS011;8461;52.356;10.704;2022-10-04T23:40:08;4.50;;;2.10;;
13741;SDS011;8461;52.356;10.704;2022-10-04T23:42:35;4.83;;;2.40;;
13741;SDS011;8461;52.356;10.704;2022-10-04T23:45:01;3.83;;;2.50;;
13741;SDS011;8461;52.356;10.704;2022-10-04T23:47:46;3.63;;;2.70;;
13741;SDS011;8461;52.356;10.704;2022-10-04T23:50:16;3.60;;;2.47;;
13741;SDS011;8461;52.356;10.704;2022-10-04T23:52:48;3.20;;;2.57;;
13741;SDS011;8461;52.356;10.704;2022-10-04T23:55:20;6.30;;;2.70;;
13741;SDS011;8461;52.356;10.704;2022-10-04T23:57:47;4.37;;;2.67;;
